sensor_id;sensor_type;location;lat;lon;timestamp;pressure;altitude;pressure_sealevel;temperature;humidity
65280;BME280;51878;55.748;48.742;2024-01-07T00:01:20;98657.41;;;-22.35;100.00
65280;BME280;51878;55.748;48.742;2024-01-07T00:06:22;98596.69;;;-22.49;100.00
65280;BME280;51878;55.748;48.742;2024-01-07T00:11:25;98653.81;;;-22.04;100.00
65280;BME280;51878;55.748;48.742;2024-01-07T00:16:27;98670.03;;;-21.85;100.00
65280;BME280;51878;55.748;48.742;2024-01-07T00:21:29;98629.16;;;-22.30;100.00
65280;BME280;51878;55.748;48.742;2024-01-07T00:26:32;98596.00;;;-23.04;100.00
65280;BME280;51878;55.748;48.742;2024-01-07T00:31:34;98639.53;;;-22.72;100.00
65280;BME280;51878;55.748;48.742;2024-01-07T00:36:36;98664.28;;;-22.44;100.00
65280;BME280;51878;55.748;48.742;2024-01-07T00:41:38;98647.94;;;-22.25;100.00
65280;BME280;51878;55.748;48.742;2024-01-07T00:46:41;98648.69;;;-22.04;100.00
65280;BME280;51878;55.748;48.742;2024-01-07T00:51:44;98595.63;;;-22.13;100.00
65280;BME280;51878;55.748;48.742;2024-01-07T00:56:46;98579.38;;;-22.11;100.00
65280;BME280;51878;55.748;48.742;2024-01-07T01:01:48;98622.75;;;-21.58;100.00
65280;BME280;51878;55.748;48.742;2024-01-07T01:06:50;98563.72;;;-21.74;100.00
65280;BME280;51878;55.748;48.742;2024-01-07T01:11:52;98602.78;;;-21.30;100.00
65280;BME280;51878;55.748;48.742;2024-01-07T01:16:55;98618.03;;;-21.06;100.00
65280;BME280;51878;55.748;48.742;2024-01-07T01:21:57;98609.25;;;-20.85;100.00
65280;BME280;51878;55.748;48.742;2024-01-07T01:27:00;98596.41;;;-20.88;100.00
65280;BME280;51878;55.748;48.742;2024-01-07T01:32:02;98592.00;;;-20.73;100.00
65280;BME280;51878;55.748;48.742;2024-01-07T01:37:04;98627.09;;;-20.63;100.00
65280;BME280;51878;55.748;48.742;2024-01-07T01:42:07;98632.16;;;-20.57;100.00
65280;BME280;51878;55.748;48.742;2024-01-07T01:47:10;98628.78;;;-20.62;100.00
65280;BME280;51878;55.748;48.742;2024-01-07T01:52:13;98539.31;;;-21.28;100.00
65280;BME280;51878;55.748;48.742;2024-01-07T01:57:19;98568.28;;;-21.08;100.00
65280;BME280;51878;55.748;48.742;2024-01-07T02:02:23;98599.81;;;-20.82;100.00
65280;BME280;51878;55.748;48.742;2024-01-07T02:07:26;98517.84;;;-21.22;100.00
65280;BME280;51878;55.748;48.742;2024-01-07T02:12:30;98635.72;;;-20.70;100.00
65280;BME280;51878;55.748;48.742;2024-01-07T02:17:32;98595.56;;;-20.87;100.00
65280;BME280;51878;55.748;48.742;2024-01-07T02:22:35;98561.44;;;-21.07;100.00
65280;BME280;51878;55.748;48.742;2024-01-07T02:27:37;98569.13;;;-21.04;100.00
65280;BME280;51878;55.748;48.742;2024-01-07T02:32:39;98538.47;;;-21.30;100.00
65280;BME280;51878;55.748;48.742;2024-01-07T02:37:42;98535.94;;;-21.33;100.00
65280;BME280;51878;55.748;48.742;2024-01-07T02:42:44;98617.88;;;-20.89;100.00
65280;BME280;51878;55.748;48.742;2024-01-07T02:47:46;98645.28;;;-20.83;100.00
65280;BME280;51878;55.748;48.742;2024-01-07T02:52:49;98596.66;;;-21.15;100.00
65280;BME280;51878;55.748;48.742;2024-01-07T02:57:51;98606.94;;;-21.12;100.00
65280;BME280;51878;55.748;48.742;2024-01-07T03:02:53;98597.59;;;-21.24;100.00
65280;BME280;51878;55.748;48.742;2024-01-07T03:07:55;98643.53;;;-20.79;100.00
65280;BME280;51878;55.748;48.742;2024-01-07T03:12:57;98672.75;;;-20.82;100.00
65280;BME280;51878;55.748;48.742;2024-01-07T03:18:00;98624.91;;;-21.08;100.00
65280;BME280;51878;55.748;48.742;2024-01-07T03:23:02;98681.44;;;-20.94;100.00
65280;BME280;51878;55.748;48.742;2024-01-07T03:28:04;98675.59;;;-21.17;100.00
65280;BME280;51878;55.748;48.742;2024-01-07T03:33:07;98691.09;;;-21.30;100.00
65280;BME280;51878;55.748;48.742;2024-01-07T03:38:09;98645.09;;;-21.68;100.00
65280;BME280;51878;55.748;48.742;2024-01-07T03:43:11;98710.88;;;-21.39;100.00
65280;BME280;51878;55.748;48.742;2024-01-07T03:48:14;98715.94;;;-21.27;100.00
65280;BME280;51878;55.748;48.742;2024-01-07T03:53:16;98708.22;;;-21.26;100.00
65280;BME280;51878;55.748;48.742;2024-01-07T03:58:18;98692.09;;;-21.46;100.00
65280;BME280;51878;55.748;48.742;2024-01-07T04:03:20;98628.16;;;-22.06;100.00
65280;BME280;51878;55.748;48.742;2024-01-07T04:08:23;98704.25;;;-21.74;100.00
65280;BME280;51878;55.748;48.742;2024-01-07T04:13:25;98710.25;;;-21.78;100.00
65280;BME280;51878;55.748;48.742;2024-01-07T04:18:27;98704.31;;;-21.91;100.00
65280;BME280;51878;55.748;48.742;2024-01-07T04:23:31;98653.03;;;-22.19;100.00
65280;BME280;51878;55.748;48.742;2024-01-07T04:28:33;98675.28;;;-22.12;100.00
65280;BME280;51878;55.748;48.742;2024-01-07T04:33:35;98735.13;;;-21.82;100.00
65280;BME280;51878;55.748;48.742;2024-01-07T04:38:37;98667.66;;;-22.28;100.00
65280;BME280;51878;55.748;48.742;2024-01-07T04:43:42;98722.34;;;-22.02;100.00
65280;BME280;51878;55.748;48.742;2024-01-07T04:48:45;98675.34;;;-22.25;100.00
65280;BME280;51878;55.748;48.742;2024-01-07T04:53:47;98730.00;;;-21.90;100.00
65280;BME280;51878;55.748;48.742;2024-01-07T04:58:50;98673.63;;;-22.22;100.00
65280;BME280;51878;55.748;48.742;2024-01-07T05:03:52;98656.53;;;-22.34;100.00
65280;BME280;51878;55.748;48.742;2024-01-07T05:08:55;98617.28;;;-22.63;100.00
65280;BME280;51878;55.748;48.742;2024-01-07T05:13:57;98583.94;;;-22.76;100.00
65280;BME280;51878;55.748;48.742;2024-01-07T05:18:59;98700.06;;;-22.00;100.00
65280;BME280;51878;55.748;48.742;2024-01-07T05:24:01;98724.00;;;-21.84;100.00
65280;BME280;51878;55.748;48.742;2024-01-07T05:29:03;98661.63;;;-22.24;100.00
65280;BME280;51878;55.748;48.742;2024-01-07T05:34:06;98681.34;;;-22.23;100.00
65280;BME280;51878;55.748;48.742;2024-01-07T05:39:08;98736.00;;;-21.88;100.00
65280;BME280;51878;55.748;48.742;2024-01-07T05:44:11;98749.66;;;-21.73;100.00
65280;BME280;51878;55.748;48.742;2024-01-07T05:49:14;98747.09;;;-21.82;100.00
65280;BME280;51878;55.748;48.742;2024-01-07T05:54:16;98721.47;;;-21.96;100.00
65280;BME280;51878;55.748;48.742;2024-01-07T05:59:18;98753.13;;;-21.85;100.00
65280;BME280;51878;55.748;48.742;2024-01-07T06:04:21;98715.41;;;-21.83;100.00
65280;BME280;51878;55.748;48.742;2024-01-07T06:09:23;98761.44;;;-21.32;100.00
65280;BME280;51878;55.748;48.742;2024-01-07T06:14:25;98748.69;;;-21.46;100.00
65280;BME280;51878;55.748;48.742;2024-01-07T06:19:29;98746.81;;;-21.22;100.00
65280;BME280;51878;55.748;48.742;2024-01-07T06:24:31;98723.53;;;-21.04;100.00
65280;BME280;51878;55.748;48.742;2024-01-07T06:29:33;98696.72;;;-20.75;100.00
65280;BME280;51878;55.748;48.742;2024-01-07T06:34:36;98733.97;;;-20.21;100.00
65280;BME280;51878;55.748;48.742;2024-01-07T06:39:38;98758.47;;;-19.83;100.00
65280;BME280;51878;55.748;48.742;2024-01-07T06:44:41;98752.09;;;-19.55;100.00
65280;BME280;51878;55.748;48.742;2024-01-07T06:49:44;98761.09;;;-19.18;100.00
65280;BME280;51878;55.748;48.742;2024-01-07T06:54:47;98747.88;;;-18.94;100.00
65280;BME280;51878;55.748;48.742;2024-01-07T06:59:50;98704.94;;;-19.02;100.00
65280;BME280;51878;55.748;48.742;2024-01-07T07:04:53;98702.44;;;-19.06;100.00
65280;BME280;51878;55.748;48.742;2024-01-07T07:09:55;98746.94;;;-18.89;100.00
65280;BME280;51878;55.748;48.742;2024-01-07T07:14:58;98683.88;;;-19.33;100.00
65280;BME280;51878;55.748;48.742;2024-01-07T07:20:00;98733.97;;;-18.87;99.73
65280;BME280;51878;55.748;48.742;2024-01-07T07:25:04;98764.56;;;-18.63;97.85
65280;BME280;51878;55.748;48.742;2024-01-07T07:30:07;98760.97;;;-18.51;97.07
65280;BME280;51878;55.748;48.742;2024-01-07T07:35:10;98752.81;;;-18.28;96.42
65280;BME280;51878;55.748;48.742;2024-01-07T07:40:12;98753.28;;;-18.56;91.42
65280;BME280;51878;55.748;48.742;2024-01-07T07:45:15;98763.31;;;-18.39;91.97
65280;BME280;51878;55.748;48.742;2024-01-07T07:50:17;98687.56;;;-18.92;91.20
65280;BME280;51878;55.748;48.742;2024-01-07T07:55:20;98779.31;;;-18.69;88.98
65280;BME280;51878;55.748;48.742;2024-01-07T08:00:22;98751.09;;;-18.80;89.13
65280;BME280;51878;55.748;48.742;2024-01-07T08:05:24;98769.28;;;-18.88;86.61
65280;BME280;51878;55.748;48.742;2024-01-07T08:10:27;98729.44;;;-18.73;90.33
65280;BME280;51878;55.748;48.742;2024-01-07T08:15:30;98732.66;;;-18.07;90.94
65280;BME280;51878;55.748;48.742;2024-01-07T08:20:32;98668.19;;;-18.18;83.96
65280;BME280;51878;55.748;48.742;2024-01-07T08:25:40;98738.81;;;-17.27;79.50
65280;BME280;51878;55.748;48.742;2024-01-07T08:30:44;98771.28;;;-16.75;73.44
65280;BME280;51878;55.748;48.742;2024-01-07T08:35:46;98748.72;;;-16.69;71.64
65280;BME280;51878;55.748;48.742;2024-01-07T08:40:51;98724.44;;;-16.66;69.73
65280;BME280;51878;55.748;48.742;2024-01-07T08:45:58;98660.91;;;-16.81;68.03
65280;BME280;51878;55.748;48.742;2024-01-07T08:51:08;98749.72;;;-16.04;65.62
65280;BME280;51878;55.748;48.742;2024-01-07T08:56:13;98639.75;;;-16.66;64.50
65280;BME280;51878;55.748;48.742;2024-01-07T09:01:15;98758.88;;;-15.59;62.46
65280;BME280;51878;55.748;48.742;2024-01-07T09:06:18;98779.88;;;-15.67;61.27
65280;BME280;51878;55.748;48.742;2024-01-07T09:11:22;98772.03;;;-15.34;62.06
65280;BME280;51878;55.748;48.742;2024-01-07T09:16:27;98751.38;;;-15.39;61.00
65280;BME280;51878;55.748;48.742;2024-01-07T09:21:29;98699.84;;;-16.15;60.89
65280;BME280;51878;55.748;48.742;2024-01-07T09:26:32;98739.13;;;-15.65;59.92
65280;BME280;51878;55.748;48.742;2024-01-07T09:31:34;98722.69;;;-15.66;58.68
65280;BME280;51878;55.748;48.742;2024-01-07T09:36:37;98727.25;;;-15.13;58.72
65280;BME280;51878;55.748;48.742;2024-01-07T09:41:39;98754.28;;;-15.50;57.79
65280;BME280;51878;55.748;48.742;2024-01-07T09:46:41;98634.88;;;-16.43;57.81
65280;BME280;51878;55.748;48.742;2024-01-07T09:51:47;98789.38;;;-15.99;59.42
65280;BME280;51878;55.748;48.742;2024-01-07T09:57:01;98768.03;;;-15.76;58.34
65280;BME280;51878;55.748;48.742;2024-01-07T10:02:04;98798.34;;;-14.84;57.83
65280;BME280;51878;55.748;48.742;2024-01-07T10:07:06;98730.31;;;-15.28;56.65
65280;BME280;51878;55.748;48.742;2024-01-07T10:12:09;98782.22;;;-14.97;55.44
65280;BME280;51878;55.748;48.742;2024-01-07T10:17:15;98762.16;;;-15.53;54.15
65280;BME280;51878;55.748;48.742;2024-01-07T10:22:21;98797.34;;;-15.41;55.08
65280;BME280;51878;55.748;48.742;2024-01-07T10:27:23;98799.13;;;-15.74;56.22
65280;BME280;51878;55.748;48.742;2024-01-07T10:32:26;98751.78;;;-16.17;56.28
65280;BME280;51878;55.748;48.742;2024-01-07T10:37:28;98795.13;;;-15.88;56.39
65280;BME280;51878;55.748;48.742;2024-01-07T10:42:31;98785.19;;;-16.40;56.48
65280;BME280;51878;55.748;48.742;2024-01-07T10:47:36;98786.06;;;-16.04;56.23
65280;BME280;51878;55.748;48.742;2024-01-07T10:52:40;98783.25;;;-16.31;55.32
65280;BME280;51878;55.748;48.742;2024-01-07T10:57:46;98795.56;;;-16.40;56.91
65280;BME280;51878;55.748;48.742;2024-01-07T11:03:11;98745.28;;;-16.33;56.21
65280;BME280;51878;55.748;48.742;2024-01-07T11:08:26;98711.75;;;-16.42;55.45
65280;BME280;51878;55.748;48.742;2024-01-07T11:13:37;98822.13;;;-15.61;54.94
65280;BME280;51878;55.748;48.742;2024-01-07T11:18:46;98804.00;;;-16.31;53.96
65280;BME280;51878;55.748;48.742;2024-01-07T11:23:48;98776.34;;;-17.07;56.26
65280;BME280;51878;55.748;48.742;2024-01-07T11:28:56;98834.44;;;-16.39;54.95
65280;BME280;51878;55.748;48.742;2024-01-07T11:34:00;98814.31;;;-17.05;55.63
65280;BME280;51878;55.748;48.742;2024-01-07T11:39:03;98840.31;;;-17.55;56.34
65280;BME280;51878;55.748;48.742;2024-01-07T11:44:05;98781.66;;;-18.01;57.18
65280;BME280;51878;55.748;48.742;2024-01-07T11:49:08;98852.56;;;-17.63;56.66
65280;BME280;51878;55.748;48.742;2024-01-07T11:54:11;98812.69;;;-19.13;58.02
65280;BME280;51878;55.748;48.742;2024-01-07T11:59:14;98853.94;;;-19.86;60.78
65280;BME280;51878;55.748;48.742;2024-01-07T12:04:16;98796.34;;;-20.88;63.70
65280;BME280;51878;55.748;48.742;2024-01-07T12:09:18;98872.69;;;-20.84;65.68
65280;BME280;51878;55.748;48.742;2024-01-07T12:14:21;98844.75;;;-21.69;72.77
65280;BME280;51878;55.748;48.742;2024-01-07T12:19:23;98894.44;;;-21.71;78.31
65280;BME280;51878;55.748;48.742;2024-01-07T12:24:26;98856.84;;;-22.44;84.95
65280;BME280;51878;55.748;48.742;2024-01-07T12:29:28;98914.16;;;-22.70;86.87
65280;BME280;51878;55.748;48.742;2024-01-07T12:34:31;98906.38;;;-22.88;88.08
65280;BME280;51878;55.748;48.742;2024-01-07T12:39:33;98865.06;;;-23.64;92.71
65280;BME280;51878;55.748;48.742;2024-01-07T12:44:36;98937.88;;;-23.34;95.39
65280;BME280;51878;55.748;48.742;2024-01-07T12:49:38;98957.41;;;-23.53;99.68
65280;BME280;51878;55.748;48.742;2024-01-07T12:54:41;98898.94;;;-24.14;100.00
65280;BME280;51878;55.748;48.742;2024-01-07T12:59:43;98953.00;;;-23.72;100.00
65280;BME280;51878;55.748;48.742;2024-01-07T13:04:45;98894.44;;;-24.41;100.00
65280;BME280;51878;55.748;48.742;2024-01-07T13:09:48;98926.84;;;-24.46;100.00
65280;BME280;51878;55.748;48.742;2024-01-07T13:14:50;98947.47;;;-24.25;100.00
65280;BME280;51878;55.748;48.742;2024-01-07T13:19:52;98975.84;;;-24.03;100.00
65280;BME280;51878;55.748;48.742;2024-01-07T13:24:55;98972.31;;;-24.16;100.00
65280;BME280;51878;55.748;48.742;2024-01-07T13:29:58;98943.28;;;-24.18;100.00
65280;BME280;51878;55.748;48.742;2024-01-07T13:35:00;98993.91;;;-23.88;100.00
65280;BME280;51878;55.748;48.742;2024-01-07T13:40:04;98956.28;;;-23.95;100.00
65280;BME280;51878;55.748;48.742;2024-01-07T13:45:06;98995.75;;;-23.67;100.00
65280;BME280;51878;55.748;48.742;2024-01-07T13:50:09;98948.38;;;-24.21;100.00
65280;BME280;51878;55.748;48.742;2024-01-07T13:55:12;99020.34;;;-23.90;100.00
65280;BME280;51878;55.748;48.742;2024-01-07T14:00:15;99016.06;;;-23.93;100.00
65280;BME280;51878;55.748;48.742;2024-01-07T14:05:20;99016.19;;;-23.78;100.00
65280;BME280;51878;55.748;48.742;2024-01-07T14:10:23;98996.38;;;-23.99;100.00
65280;BME280;51878;55.748;48.742;2024-01-07T14:15:25;99013.34;;;-24.10;100.00
65280;BME280;51878;55.748;48.742;2024-01-07T14:20:27;98911.22;;;-24.77;100.00
65280;BME280;51878;55.748;48.742;2024-01-07T14:25:30;99018.41;;;-24.14;100.00
65280;BME280;51878;55.748;48.742;2024-01-07T14:30:32;98966.75;;;-24.65;100.00
65280;BME280;51878;55.748;48.742;2024-01-07T14:35:35;98965.75;;;-24.79;100.00
65280;BME280;51878;55.748;48.742;2024-01-07T14:40:37;99033.25;;;-24.65;100.00
65280;BME280;51878;55.748;48.742;2024-01-07T14:45:40;98975.78;;;-24.93;100.00
65280;BME280;51878;55.748;48.742;2024-01-07T14:50:42;98979.00;;;-25.11;100.00
65280;BME280;51878;55.748;48.742;2024-01-07T14:55:49;98978.88;;;-25.23;100.00
65280;BME280;51878;55.748;48.742;2024-01-07T15:00:52;99066.84;;;-25.05;100.00
65280;BME280;51878;55.748;48.742;2024-01-07T15:05:56;99006.63;;;-25.48;100.00
65280;BME280;51878;55.748;48.742;2024-01-07T15:10:59;99091.34;;;-25.23;100.00
65280;BME280;51878;55.748;48.742;2024-01-07T15:16:01;99074.00;;;-25.41;100.00
65280;BME280;51878;55.748;48.742;2024-01-07T15:21:03;99076.47;;;-25.46;100.00
65280;BME280;51878;55.748;48.742;2024-01-07T15:26:05;99068.75;;;-25.51;100.00
65280;BME280;51878;55.748;48.742;2024-01-07T15:31:08;99081.63;;;-25.45;100.00
65280;BME280;51878;55.748;48.742;2024-01-07T15:36:11;99022.44;;;-25.74;100.00
65280;BME280;51878;55.748;48.742;2024-01-07T15:41:13;99095.19;;;-25.49;100.00
65280;BME280;51878;55.748;48.742;2024-01-07T15:46:15;99083.81;;;-25.66;100.00
65280;BME280;51878;55.748;48.742;2024-01-07T15:51:17;99011.06;;;-25.94;100.00
65280;BME280;51878;55.748;48.742;2024-01-07T15:56:22;99083.16;;;-25.56;100.00
65280;BME280;51878;55.748;48.742;2024-01-07T16:01:24;99097.59;;;-25.58;100.00
65280;BME280;51878;55.748;48.742;2024-01-07T16:06:26;99046.78;;;-25.96;100.00
65280;BME280;51878;55.748;48.742;2024-01-07T16:11:28;99097.22;;;-25.81;100.00
65280;BME280;51878;55.748;48.742;2024-01-07T16:16:32;99089.44;;;-25.86;100.00
65280;BME280;51878;55.748;48.742;2024-01-07T16:21:34;99116.88;;;-25.75;100.00
65280;BME280;51878;55.748;48.742;2024-01-07T16:26:41;99093.63;;;-25.94;100.00
65280;BME280;51878;55.748;48.742;2024-01-07T16:31:45;99117.41;;;-25.95;100.00
65280;BME280;51878;55.748;48.742;2024-01-07T16:36:47;99068.41;;;-26.24;100.00
65280;BME280;51878;55.748;48.742;2024-01-07T16:41:50;99123.94;;;-26.11;100.00
65280;BME280;51878;55.748;48.742;2024-01-07T16:46:58;99093.88;;;-26.25;100.00
65280;BME280;51878;55.748;48.742;2024-01-07T16:52:00;99097.47;;;-26.16;100.00
65280;BME280;51878;55.748;48.742;2024-01-07T16:57:02;99137.72;;;-26.01;100.00
65280;BME280;51878;55.748;48.742;2024-01-07T17:02:05;99032.81;;;-26.63;100.00
65280;BME280;51878;55.748;48.742;2024-01-07T17:07:07;99131.06;;;-25.94;100.00
65280;BME280;51878;55.748;48.742;2024-01-07T17:12:09;99112.31;;;-25.95;100.00
65280;BME280;51878;55.748;48.742;2024-01-07T17:17:12;99125.16;;;-25.92;100.00
65280;BME280;51878;55.748;48.742;2024-01-07T17:22:14;99081.19;;;-26.21;100.00
65280;BME280;51878;55.748;48.742;2024-01-07T17:27:16;99084.72;;;-26.14;100.00
65280;BME280;51878;55.748;48.742;2024-01-07T17:32:19;99055.16;;;-26.50;100.00
65280;BME280;51878;55.748;48.742;2024-01-07T17:37:24;99159.47;;;-25.73;100.00
65280;BME280;51878;55.748;48.742;2024-01-07T17:42:28;99071.69;;;-26.30;100.00
65280;BME280;51878;55.748;48.742;2024-01-07T17:47:31;99129.84;;;-26.13;100.00
65280;BME280;51878;55.748;48.742;2024-01-07T17:52:36;99155.53;;;-26.04;100.00
65280;BME280;51878;55.748;48.742;2024-01-07T17:57:41;99063.59;;;-26.53;100.00
65280;BME280;51878;55.748;48.742;2024-01-07T18:02:43;99121.69;;;-26.39;100.00
65280;BME280;51878;55.748;48.742;2024-01-07T18:07:46;99167.50;;;-26.01;100.00
65280;BME280;51878;55.748;48.742;2024-01-07T18:12:48;99196.59;;;-25.93;100.00
65280;BME280;51878;55.748;48.742;2024-01-07T18:17:50;99219.84;;;-25.78;100.00
65280;BME280;51878;55.748;48.742;2024-01-07T18:22:53;99186.19;;;-26.02;100.00
65280;BME280;51878;55.748;48.742;2024-01-07T18:27:55;99217.22;;;-25.81;100.00
65280;BME280;51878;55.748;48.742;2024-01-07T18:32:57;99163.81;;;-26.16;100.00
65280;BME280;51878;55.748;48.742;2024-01-07T18:37:59;99198.88;;;-26.05;100.00
65280;BME280;51878;55.748;48.742;2024-01-07T18:43:04;99176.41;;;-26.23;100.00
65280;BME280;51878;55.748;48.742;2024-01-07T18:48:07;99153.22;;;-26.36;100.00
65280;BME280;51878;55.748;48.742;2024-01-07T18:53:09;99232.97;;;-26.03;100.00
65280;BME280;51878;55.748;48.742;2024-01-07T18:58:14;99124.84;;;-26.50;100.00
65280;BME280;51878;55.748;48.742;2024-01-07T19:03:17;99228.06;;;-25.94;100.00
65280;BME280;51878;55.748;48.742;2024-01-07T19:08:19;99249.41;;;-25.91;100.00
65280;BME280;51878;55.748;48.742;2024-01-07T19:13:21;99260.47;;;-25.90;100.00
65280;BME280;51878;55.748;48.742;2024-01-07T19:18:24;99166.06;;;-26.30;100.00
65280;BME280;51878;55.748;48.742;2024-01-07T19:23:26;99181.00;;;-26.07;100.00
65280;BME280;51878;55.748;48.742;2024-01-07T19:28:29;99264.28;;;-25.68;100.00
65280;BME280;51878;55.748;48.742;2024-01-07T19:33:32;99217.06;;;-25.90;100.00
65280;BME280;51878;55.748;48.742;2024-01-07T19:38:36;99217.97;;;-25.87;100.00
65280;BME280;51878;55.748;48.742;2024-01-07T19:43:38;99220.94;;;-25.65;100.00
65280;BME280;51878;55.748;48.742;2024-01-07T19:48:42;99237.38;;;-25.51;100.00
65280;BME280;51878;55.748;48.742;2024-01-07T19:53:44;99277.91;;;-25.23;100.00
65280;BME280;51878;55.748;48.742;2024-01-07T19:58:47;99284.84;;;-25.15;100.00
65280;BME280;51878;55.748;48.742;2024-01-07T20:03:49;99269.63;;;-25.07;100.00
65280;BME280;51878;55.748;48.742;2024-01-07T20:08:51;99277.41;;;-25.01;100.00
65280;BME280;51878;55.748;48.742;2024-01-07T20:13:54;99286.81;;;-25.00;100.00
65280;BME280;51878;55.748;48.742;2024-01-07T20:18:57;99209.88;;;-25.64;100.00
65280;BME280;51878;55.748;48.742;2024-01-07T20:24:00;99309.47;;;-25.21;100.00
65280;BME280;51878;55.748;48.742;2024-01-07T20:29:03;99295.66;;;-25.31;100.00
65280;BME280;51878;55.748;48.742;2024-01-07T20:34:09;99304.28;;;-25.25;100.00
65280;BME280;51878;55.748;48.742;2024-01-07T20:39:12;99302.13;;;-25.49;100.00
65280;BME280;51878;55.748;48.742;2024-01-07T20:44:14;99220.50;;;-25.90;100.00
65280;BME280;51878;55.748;48.742;2024-01-07T20:49:17;99292.00;;;-25.44;100.00
65280;BME280;51878;55.748;48.742;2024-01-07T20:54:19;99289.44;;;-25.46;100.00
65280;BME280;51878;55.748;48.742;2024-01-07T20:59:21;99235.19;;;-25.75;100.00
65280;BME280;51878;55.748;48.742;2024-01-07T21:04:24;99261.38;;;-25.42;100.00
65280;BME280;51878;55.748;48.742;2024-01-07T21:09:26;99269.38;;;-25.24;100.00
65280;BME280;51878;55.748;48.742;2024-01-07T21:14:28;99230.50;;;-25.53;100.00
65280;BME280;51878;55.748;48.742;2024-01-07T21:19:30;99285.13;;;-24.98;100.00
65280;BME280;51878;55.748;48.742;2024-01-07T21:24:33;99265.44;;;-25.04;100.00
65280;BME280;51878;55.748;48.742;2024-01-07T21:29:35;99275.09;;;-24.87;100.00
65280;BME280;51878;55.748;48.742;2024-01-07T21:34:38;99257.28;;;-24.81;100.00
65280;BME280;51878;55.748;48.742;2024-01-07T21:39:40;99317.59;;;-24.42;100.00
65280;BME280;51878;55.748;48.742;2024-01-07T21:44:46;99245.31;;;-24.82;100.00
65280;BME280;51878;55.748;48.742;2024-01-07T21:49:49;99326.22;;;-24.34;100.00
65280;BME280;51878;55.748;48.742;2024-01-07T21:54:52;99339.28;;;-24.20;100.00
65280;BME280;51878;55.748;48.742;2024-01-07T21:59:54;99305.72;;;-24.37;100.00
65280;BME280;51878;55.748;48.742;2024-01-07T22:04:57;99342.19;;;-23.94;100.00
65280;BME280;51878;55.748;48.742;2024-01-07T22:09:59;99286.13;;;-24.33;100.00
65280;BME280;51878;55.748;48.742;2024-01-07T22:15:01;99243.06;;;-24.64;100.00
65280;BME280;51878;55.748;48.742;2024-01-07T22:20:07;99292.50;;;-24.65;100.00
65280;BME280;51878;55.748;48.742;2024-01-07T22:25:09;99284.88;;;-24.63;100.00
65280;BME280;51878;55.748;48.742;2024-01-07T22:30:12;99310.66;;;-24.49;100.00
65280;BME280;51878;55.748;48.742;2024-01-07T22:35:15;99342.97;;;-24.57;100.00
65280;BME280;51878;55.748;48.742;2024-01-07T22:40:17;99292.88;;;-24.93;100.00
65280;BME280;51878;55.748;48.742;2024-01-07T22:45:19;99318.47;;;-24.93;100.00
65280;BME280;51878;55.748;48.742;2024-01-07T22:50:23;99362.22;;;-24.78;100.00
65280;BME280;51878;55.748;48.742;2024-01-07T22:55:25;99366.34;;;-24.85;100.00
65280;BME280;51878;55.748;48.742;2024-01-07T23:00:27;99381.50;;;-24.95;100.00
65280;BME280;51878;55.748;48.742;2024-01-07T23:05:30;99364.56;;;-24.90;100.00
65280;BME280;51878;55.748;48.742;2024-01-07T23:10:33;99346.38;;;-25.06;100.00
65280;BME280;51878;55.748;48.742;2024-01-07T23:15:36;99331.03;;;-25.06;100.00
65280;BME280;51878;55.748;48.742;2024-01-07T23:20:38;99295.59;;;-25.34;100.00
65280;BME280;51878;55.748;48.742;2024-01-07T23:25:40;99297.38;;;-25.30;100.00
65280;BME280;51878;55.748;48.742;2024-01-07T23:30:42;99297.47;;;-25.24;100.00
65280;BME280;51878;55.748;48.742;2024-01-07T23:35:45;99305.28;;;-25.16;100.00
65280;BME280;51878;55.748;48.742;2024-01-07T23:40:54;99220.13;;;-25.62;100.00
65280;BME280;51878;55.748;48.742;2024-01-07T23:45:57;99252.03;;;-25.40;100.00
65280;BME280;51878;55.748;48.742;2024-01-07T23:50:59;99312.88;;;-25.21;100.00
65280;BME280;51878;55.748;48.742;2024-01-07T23:56:01;99276.53;;;-25.52;100.00
